LFBI/PIS METAR and TAF weather

Enter ICAO airport designator
Station Type Date Time Source
LFBI METAR 2021/02/27 09:30 UTC NOAA

LFBI 270930Z AUTO 03011KT CAVOK 06/01 Q1035 TEMPO 04015G25KT


Station Type Date Time Source
LFBI Decoded METAR 2021/02/27 09:30 UTC NOAA

Poitiers, France (LFBI) 46-35N 000-19E 120M
Feb 27, 2021 - 04:30 AM EST / 2021.02.27 0930 UTC
Wind: from the NNE (030 degrees) at 13 MPH (11 KT):0
Visibility: greater than 7 mile(s):0
Temperature: 42 F (6 C)
Dew Point: 33 F (1 C)
Relative Humidity: 70%
Pressure (altimeter): 30.56 in. Hg (1035 hPa)
ob: LFBI 270930Z AUTO 03011KT CAVOK 06/01 Q1035 TEMPO 04015G25KT
cycle: 9

Station Type Date Time Source
LFBI TAF 2021/02/27 06:21 UTC NOAA

TAF LFBI 270500Z 2706/2806 02010KT CAVOK PROB40 2710/2802 04015G25KT PROB30
TEMPO 2802/2806 BKN008

Example: see airport list